createdAt,value
2022-10-13T00:01:20.070Z,2.90
2022-10-13T00:03:48.411Z,2.53
2022-10-13T00:06:31.887Z,2.47
2022-10-13T00:09:00.095Z,2.40
2022-10-13T00:11:29.882Z,1.90
2022-10-13T00:14:01.556Z,2.03
2022-10-13T00:16:33.312Z,2.10
2022-10-13T00:19:01.030Z,2.40
2022-10-13T00:21:29.553Z,1.90
2022-10-13T00:23:57.511Z,1.97
2022-10-13T00:26:27.184Z,1.80
2022-10-13T00:28:56.372Z,1.47
2022-10-13T00:31:28.965Z,1.50
2022-10-13T00:33:57.863Z,1.80
2022-10-13T00:36:25.820Z,1.70
2022-10-13T00:38:54.312Z,1.60
2022-10-13T00:41:22.216Z,1.90
2022-10-13T00:43:52.337Z,2.03
2022-10-13T00:46:21.075Z,1.77
2022-10-13T00:48:57.079Z,2.10
2022-10-13T00:51:29.968Z,1.80
2022-10-13T00:54:00.359Z,7.73
2022-10-13T00:56:29.038Z,10.20
2022-10-13T00:58:57.877Z,9.37
2022-10-13T01:01:25.490Z,8.97
2022-10-13T01:03:53.146Z,8.97
2022-10-13T01:06:23.614Z,5.87
2022-10-13T01:08:51.931Z,4.60
2022-10-13T01:11:39.841Z,3.20
2022-10-13T01:14:46.988Z,3.37
2022-10-13T01:17:55.397Z,3.27
2022-10-13T01:20:47.398Z,3.87
2022-10-13T01:24:18.755Z,3.10
2022-10-13T01:27:14.450Z,2.50
2022-10-13T01:30:06.450Z,2.80
2022-10-13T01:33:02.103Z,2.57
2022-10-13T01:36:01.177Z,3.13
2022-10-13T01:38:44.329Z,2.47
2022-10-13T01:41:26.557Z,2.70
2022-10-13T01:44:17.423Z,2.63
2022-10-13T01:46:55.056Z,2.50
2022-10-13T01:49:31.131Z,2.60
2022-10-13T01:52:07.782Z,2.30
2022-10-13T01:54:35.402Z,2.50
2022-10-13T01:57:03.365Z,2.60
2022-10-13T01:59:36.219Z,2.43
2022-10-13T02:02:20.912Z,2.70
2022-10-13T02:05:26.093Z,2.80
2022-10-13T02:08:16.317Z,2.53
2022-10-13T02:10:56.099Z,2.87
2022-10-13T02:13:28.595Z,2.70
2022-10-13T02:16:01.555Z,2.40
2022-10-13T02:18:34.839Z,2.47
2022-10-13T02:21:04.480Z,2.60
2022-10-13T02:23:32.625Z,2.70
2022-10-13T02:26:00.816Z,2.53
2022-10-13T02:28:29.650Z,2.70
2022-10-13T02:30:57.747Z,2.53
2022-10-13T02:33:25.375Z,2.10
2022-10-13T02:35:52.892Z,2.73
2022-10-13T02:38:20.618Z,2.20
2022-10-13T02:40:48.120Z,2.10
2022-10-13T02:43:16.659Z,2.10
2022-10-13T02:45:44.234Z,2.53
2022-10-13T02:48:11.767Z,2.80
2022-10-13T02:50:39.347Z,2.60
2022-10-13T02:53:06.880Z,2.93
2022-10-13T02:55:34.365Z,2.70
2022-10-13T02:58:01.963Z,2.83
2022-10-13T03:00:29.593Z,3.50
2022-10-13T03:02:57.334Z,4.00
2022-10-13T03:05:24.857Z,3.97
2022-10-13T03:07:52.399Z,4.20
2022-10-13T03:10:20.250Z,3.10
2022-10-13T03:12:51.198Z,3.97
2022-10-13T03:15:18.811Z,3.60
2022-10-13T03:17:49.307Z,4.10
2022-10-13T03:20:17.399Z,6.43
2022-10-13T03:22:49.551Z,5.70
2022-10-13T03:25:18.275Z,7.20
2022-10-13T03:27:45.897Z,6.83
2022-10-13T03:30:14.329Z,9.20
2022-10-13T03:32:41.926Z,20.77
2022-10-13T03:35:09.757Z,25.03
2022-10-13T03:37:37.314Z,22.43
2022-10-13T03:40:05.540Z,19.10
2022-10-13T03:42:35.282Z,21.33
2022-10-13T03:45:03.485Z,17.30
2022-10-13T03:47:38.361Z,14.57
2022-10-13T03:50:07.382Z,11.63
2022-10-13T03:52:34.958Z,9.87
2022-10-13T03:55:02.897Z,5.77
2022-10-13T03:57:30.795Z,5.70
2022-10-13T03:59:58.980Z,5.00
2022-10-13T04:02:27.604Z,4.70
2022-10-13T04:04:55.307Z,5.20
2022-10-13T04:07:23.228Z,4.70
2022-10-13T04:09:50.791Z,4.20
2022-10-13T04:12:20.945Z,4.27
2022-10-13T04:14:48.933Z,3.80
2022-10-13T04:17:16.446Z,4.10
2022-10-13T04:19:44.140Z,3.93
2022-10-13T04:22:11.644Z,4.13
2022-10-13T04:24:39.317Z,4.00
2022-10-13T04:27:06.875Z,3.80
2022-10-13T04:29:34.413Z,4.40
2022-10-13T04:32:01.969Z,4.60
2022-10-13T04:34:29.693Z,4.50
2022-10-13T04:36:57.677Z,4.90
2022-10-13T04:39:25.243Z,4.73
2022-10-13T04:41:52.799Z,4.83
2022-10-13T04:44:20.426Z,5.27
2022-10-13T04:46:47.909Z,4.67
2022-10-13T04:49:16.209Z,4.40
2022-10-13T04:51:43.714Z,4.67
2022-10-13T04:54:11.360Z,4.77
2022-10-13T04:56:38.962Z,5.10
2022-10-13T04:59:06.597Z,4.60
2022-10-13T05:01:36.528Z,4.80
2022-10-13T05:04:07.536Z,5.33
2022-10-13T05:06:58.955Z,5.37
2022-10-13T05:09:28.056Z,5.93
2022-10-13T05:11:55.616Z,6.07
2022-10-13T05:14:23.902Z,6.17
2022-10-13T05:16:51.453Z,6.07
2022-10-13T05:19:19.102Z,5.87
2022-10-13T05:21:46.581Z,6.60
2022-10-13T05:24:16.126Z,6.73
2022-10-13T05:26:44.187Z,6.87
2022-10-13T05:29:11.813Z,6.80
2022-10-13T05:31:41.041Z,6.80
2022-10-13T05:34:08.666Z,6.90
2022-10-13T05:36:36.193Z,6.70
2022-10-13T05:39:10.235Z,7.77
2022-10-13T05:41:39.343Z,6.20
2022-10-13T05:44:14.039Z,6.07
2022-10-13T05:46:54.136Z,6.10
2022-10-13T05:49:21.715Z,5.57
2022-10-13T05:51:56.762Z,5.27
2022-10-13T05:54:51.050Z,4.90
2022-10-13T05:57:41.218Z,4.73
2022-10-13T06:00:12.066Z,6.10
2022-10-13T06:03:11.561Z,5.40
2022-10-13T06:05:45.241Z,5.33
2022-10-13T06:08:12.907Z,5.13
2022-10-13T06:10:42.191Z,5.13
2022-10-13T06:13:10.828Z,5.30
2022-10-13T06:15:38.331Z,5.17
2022-10-13T06:18:10.415Z,4.93
2022-10-13T06:20:38.086Z,5.47
2022-10-13T06:23:05.750Z,5.23
2022-10-13T06:25:33.545Z,5.13
2022-10-13T06:28:01.189Z,4.47
2022-10-13T06:30:28.931Z,4.70
2022-10-13T06:32:56.735Z,4.70
2022-10-13T06:35:24.424Z,4.87
2022-10-13T06:37:53.375Z,4.67
2022-10-13T06:40:20.825Z,5.20
2022-10-13T06:42:51.887Z,4.80
2022-10-13T06:45:23.113Z,5.00
2022-10-13T06:47:52.616Z,5.23
2022-10-13T06:50:20.500Z,5.63
2022-10-13T06:52:48.261Z,5.13
2022-10-13T06:55:16.652Z,4.77
2022-10-13T06:57:44.232Z,4.80
2022-10-13T07:00:12.456Z,4.93
2022-10-13T07:02:40.054Z,6.97
2022-10-13T07:05:08.036Z,4.97
2022-10-13T07:07:35.661Z,4.63
2022-10-13T07:10:03.308Z,5.10
2022-10-13T07:12:30.858Z,6.80
2022-10-13T07:14:59.960Z,4.80
2022-10-13T07:17:27.879Z,5.10
2022-10-13T07:19:59.104Z,4.93
2022-10-13T07:22:28.928Z,5.30
2022-10-13T07:24:56.458Z,5.10
2022-10-13T07:27:25.158Z,5.37
2022-10-13T07:29:54.193Z,5.67
2022-10-13T07:32:21.909Z,5.57
2022-10-13T07:34:53.965Z,5.80
2022-10-13T07:37:22.067Z,6.03
2022-10-13T07:39:50.084Z,6.13
2022-10-13T07:42:17.839Z,5.60
2022-10-13T07:44:45.491Z,4.90
2022-10-13T07:47:13.073Z,4.20
2022-10-13T07:49:40.889Z,5.40
2022-10-13T07:52:08.461Z,5.57
2022-10-13T07:54:36.074Z,7.50
2022-10-13T07:57:06.494Z,6.30
2022-10-13T07:59:34.246Z,5.47
2022-10-13T08:02:02.045Z,4.97
2022-10-13T08:04:36.447Z,5.17
2022-10-13T08:07:07.748Z,4.63
2022-10-13T08:09:35.660Z,5.33
2022-10-13T08:12:03.715Z,4.80
2022-10-13T08:14:32.417Z,4.80
2022-10-13T08:17:01.399Z,5.40
2022-10-13T08:19:29.275Z,4.60
2022-10-13T08:22:00.324Z,5.13
2022-10-13T08:24:30.944Z,4.27
2022-10-13T08:27:00.602Z,6.00
2022-10-13T08:29:28.519Z,3.90
2022-10-13T08:31:58.624Z,4.23
2022-10-13T08:34:27.861Z,5.17
2022-10-13T08:36:58.375Z,4.80
2022-10-13T08:39:26.850Z,4.80
2022-10-13T08:41:58.851Z,4.30
2022-10-13T08:47:44.626Z,3.83
2022-10-13T08:50:22.666Z,3.93
2022-10-13T08:52:58.514Z,4.10
2022-10-13T08:55:43.785Z,3.80
2022-10-13T08:58:33.970Z,4.20
2022-10-13T09:01:18.386Z,3.70
2022-10-13T09:03:50.935Z,3.00
2022-10-13T09:06:46.327Z,3.93
2022-10-13T09:09:17.194Z,3.53
2022-10-13T09:11:50.533Z,3.33
2022-10-13T09:14:31.602Z,3.60
2022-10-13T09:17:16.610Z,2.50
2022-10-13T09:19:46.289Z,3.30
2022-10-13T09:22:24.163Z,3.70
2022-10-13T09:25:18.276Z,3.50
2022-10-13T09:27:59.213Z,3.13
2022-10-13T09:30:32.582Z,2.30
2022-10-13T09:33:13.393Z,6.80
2022-10-13T09:35:47.573Z,2.73
2022-10-13T09:38:20.374Z,3.07
2022-10-13T09:41:04.753Z,3.10
2022-10-13T09:43:46.922Z,2.80
2022-10-13T09:46:28.234Z,2.60
2022-10-13T09:49:07.089Z,2.70
2022-10-13T09:51:45.775Z,3.50
2022-10-13T09:54:41.472Z,2.60
2022-10-13T09:57:24.744Z,2.90
2022-10-13T10:00:16.604Z,2.67
2022-10-13T10:03:24.695Z,2.87
2022-10-13T10:09:04.648Z,2.55
2022-10-13T10:11:42.569Z,2.80
2022-10-13T10:14:40.164Z,2.67
2022-10-13T10:17:29.832Z,3.35
2022-10-13T10:20:00.704Z,2.58
2022-10-13T10:22:52.864Z,2.00
2022-10-13T10:25:37.373Z,2.55
2022-10-13T10:28:29.177Z,2.88
2022-10-13T10:31:34.629Z,2.42
2022-10-13T10:34:35.564Z,2.22
2022-10-13T10:37:35.241Z,2.38
2022-10-13T10:41:09.736Z,1.92
2022-10-13T10:43:55.791Z,1.92
2022-10-13T10:46:36.361Z,4.10
2022-10-13T10:49:24.369Z,2.50
2022-10-13T10:51:52.145Z,2.78
2022-10-13T10:54:37.514Z,2.90
2022-10-13T10:57:35.172Z,2.72
2022-10-13T11:00:20.979Z,2.20
2022-10-13T11:02:57.407Z,2.50
2022-10-13T11:05:25.287Z,2.57
2022-10-13T11:07:52.705Z,2.20
2022-10-13T11:10:23.066Z,3.92
2022-10-13T11:12:53.347Z,3.00
2022-10-13T11:15:45.254Z,2.40
2022-10-13T11:19:08.169Z,2.55
2022-10-13T11:21:53.846Z,2.40
2022-10-13T11:24:48.070Z,2.33
2022-10-13T11:27:35.029Z,2.75
2022-10-13T11:30:03.732Z,2.40
2022-10-13T11:32:33.165Z,2.30
2022-10-13T11:35:11.215Z,2.50
2022-10-13T11:38:23.024Z,2.58
2022-10-13T11:41:16.991Z,2.50
2022-10-13T11:43:55.862Z,2.00
2022-10-13T11:47:28.722Z,2.70
2022-10-13T11:50:17.786Z,1.70
2022-10-13T11:53:09.730Z,2.30
2022-10-13T11:55:54.178Z,2.30
2022-10-13T11:58:32.793Z,2.40
2022-10-13T12:01:07.476Z,3.63
2022-10-13T12:03:43.545Z,2.45
2022-10-13T12:06:37.125Z,2.13
2022-10-13T12:09:18.424Z,2.75
2022-10-13T12:11:46.336Z,1.98
2022-10-13T12:14:32.529Z,2.00
2022-10-13T12:17:36.030Z,2.08
2022-10-13T12:20:23.645Z,2.42
2022-10-13T12:22:53.778Z,2.15
2022-10-13T12:25:27.950Z,3.30
2022-10-13T12:28:01.228Z,2.13
2022-10-13T12:30:38.075Z,2.72
2022-10-13T12:33:31.839Z,2.53
2022-10-13T12:36:19.965Z,2.40
2022-10-13T12:38:54.648Z,2.55
2022-10-13T12:41:29.016Z,2.22
2022-10-13T12:44:01.130Z,2.33
2022-10-13T12:46:56.180Z,2.67
2022-10-13T12:49:30.655Z,2.13
2022-10-13T12:52:06.357Z,1.83
2022-10-13T12:54:43.225Z,2.10
2022-10-13T12:57:27.142Z,1.92
2022-10-13T12:59:54.921Z,2.00
2022-10-13T13:02:48.842Z,2.00
2022-10-13T13:05:50.961Z,2.40
2022-10-13T13:08:30.365Z,2.53
2022-10-13T13:11:24.796Z,2.08
2022-10-13T13:14:22.927Z,2.60
2022-10-13T13:17:56.639Z,2.13
2022-10-13T13:20:27.697Z,3.08
2022-10-13T13:22:55.881Z,3.13
2022-10-13T13:25:27.822Z,3.20
2022-10-13T13:27:55.458Z,3.50
2022-10-13T13:30:24.802Z,3.17
2022-10-13T13:32:52.545Z,4.70
2022-10-13T13:35:20.101Z,7.18
2022-10-13T13:37:51.085Z,6.22
2022-10-13T13:40:27.707Z,6.93
2022-10-13T13:42:55.986Z,7.68
2022-10-13T13:45:26.992Z,10.05
2022-10-13T13:47:59.481Z,10.65
2022-10-13T13:50:34.809Z,10.25
2022-10-13T13:53:02.932Z,9.68
2022-10-13T13:55:30.888Z,9.65
2022-10-13T13:57:59.205Z,9.68
2022-10-13T14:00:27.564Z,8.93
2022-10-13T14:02:58.726Z,8.65
2022-10-13T14:05:26.788Z,9.52
2022-10-13T14:07:59.039Z,7.05
2022-10-13T14:10:27.668Z,6.18
2022-10-13T14:12:55.581Z,5.60
2022-10-13T14:15:27.186Z,4.60
2022-10-13T14:17:57.168Z,4.28
2022-10-13T14:20:24.747Z,4.43
2022-10-13T14:22:52.303Z,3.58
2022-10-13T14:25:20.040Z,5.40
2022-10-13T14:28:07.538Z,2.50
2022-10-13T14:30:35.526Z,5.93
2022-10-13T14:33:05.002Z,2.97
2022-10-13T14:35:32.923Z,2.28
2022-10-13T14:38:01.601Z,2.72
2022-10-13T14:40:29.067Z,4.28
2022-10-13T14:42:56.551Z,2.35
2022-10-13T14:45:27.052Z,2.22
2022-10-13T14:47:54.596Z,2.08
2022-10-13T14:50:22.150Z,4.03
2022-10-13T14:52:56.056Z,7.82
2022-10-13T14:55:23.978Z,3.60
2022-10-13T14:57:51.530Z,4.13
2022-10-13T15:00:20.158Z,6.85
2022-10-13T15:02:47.655Z,4.03
2022-10-13T15:05:16.689Z,2.85
2022-10-13T15:07:45.287Z,4.00
2022-10-13T15:10:12.921Z,3.42
2022-10-13T15:13:03.748Z,1.98
2022-10-13T15:15:35.952Z,2.13
2022-10-13T15:18:05.751Z,6.05
2022-10-13T15:20:35.261Z,8.70
2022-10-13T15:23:04.579Z,2.72
2022-10-13T15:25:32.045Z,2.50
2022-10-13T15:27:59.634Z,1.30
2022-10-13T15:30:28.192Z,5.55
2022-10-13T15:32:56.690Z,6.85
2022-10-13T15:35:24.252Z,3.22
2022-10-13T15:37:51.748Z,2.20
2022-10-13T15:40:21.481Z,5.72
2022-10-13T15:42:50.492Z,3.58
2022-10-13T15:45:18.651Z,3.28
2022-10-13T15:47:49.990Z,2.72
2022-10-13T15:50:18.082Z,3.00
2022-10-13T15:52:45.858Z,5.03
2022-10-13T15:55:14.821Z,3.42
2022-10-13T15:57:43.861Z,3.88
2022-10-13T16:00:15.929Z,4.00
2022-10-13T16:02:44.713Z,6.53
2022-10-13T16:05:13.813Z,3.63
2022-10-13T16:07:43.224Z,1.92
2022-10-13T16:10:13.323Z,1.97
2022-10-13T16:12:46.958Z,2.50
2022-10-13T16:15:18.801Z,2.03
2022-10-13T16:17:49.269Z,1.50
2022-10-13T16:20:17.986Z,1.57
2022-10-13T16:22:46.490Z,1.47
2022-10-13T16:25:14.123Z,1.57
2022-10-13T16:27:44.340Z,1.50
2022-10-13T16:30:15.262Z,1.53
2022-10-13T16:32:43.095Z,1.90
2022-10-13T16:35:12.392Z,1.50
2022-10-13T16:37:40.638Z,2.10
2022-10-13T16:40:08.929Z,2.13
2022-10-13T16:42:37.313Z,2.73
2022-10-13T16:45:05.634Z,3.60
2022-10-13T16:47:35.477Z,3.90
2022-10-13T16:50:09.354Z,4.33
2022-10-13T16:52:39.064Z,4.47
2022-10-13T16:55:09.923Z,4.40
2022-10-13T16:57:38.492Z,4.03
2022-10-13T17:00:08.158Z,3.00
2022-10-13T17:02:36.646Z,2.50
2022-10-13T17:05:06.900Z,2.50
2022-10-13T17:07:36.807Z,2.83
2022-10-13T17:10:26.099Z,3.43
2022-10-13T17:12:54.748Z,3.50
2022-10-13T17:15:22.230Z,3.70
2022-10-13T17:17:53.785Z,4.50
2022-10-13T17:20:25.074Z,4.17
2022-10-13T17:22:57.248Z,3.70
2022-10-13T17:25:27.926Z,3.80
2022-10-13T17:27:55.455Z,3.70
2022-10-13T17:30:23.624Z,3.80
2022-10-13T17:32:52.359Z,3.27
2022-10-13T17:35:27.603Z,3.40
2022-10-13T17:37:57.457Z,3.00
2022-10-13T17:40:28.395Z,3.23
2022-10-13T17:43:00.368Z,2.93
2022-10-13T17:45:31.981Z,2.80
2022-10-13T17:48:00.804Z,2.47
2022-10-13T17:50:41.132Z,2.20
2022-10-13T17:53:11.675Z,2.40
2022-10-13T17:55:42.710Z,2.27
2022-10-13T17:58:31.487Z,2.43
2022-10-13T18:01:12.919Z,2.30
2022-10-13T18:03:51.653Z,3.07
2022-10-13T18:06:22.780Z,2.93
2022-10-13T18:08:56.613Z,3.50
2022-10-13T18:11:26.598Z,3.40
2022-10-13T18:13:56.027Z,3.70
2022-10-13T18:16:24.841Z,4.30
2022-10-13T18:19:02.066Z,3.63
2022-10-13T18:21:31.571Z,2.80
2022-10-13T18:24:04.316Z,2.57
2022-10-13T18:26:35.855Z,2.20
2022-10-13T18:29:08.397Z,2.27
2022-10-13T18:31:40.397Z,2.07
2022-10-13T18:34:16.157Z,2.47
2022-10-13T18:36:50.738Z,2.00
2022-10-13T18:39:27.369Z,1.90
2022-10-13T18:41:57.669Z,1.57
2022-10-13T18:44:35.222Z,1.97
2022-10-13T18:47:03.885Z,1.97
2022-10-13T18:49:31.581Z,1.73
2022-10-13T18:52:00.914Z,1.93
2022-10-13T18:54:30.024Z,1.50
2022-10-13T18:56:59.054Z,1.60
2022-10-13T18:59:28.045Z,1.60
2022-10-13T19:01:56.820Z,1.97
2022-10-13T19:04:26.731Z,2.30
2022-10-13T19:06:55.473Z,2.10
2022-10-13T19:09:24.889Z,1.90
2022-10-13T19:12:12.339Z,1.90
2022-10-13T19:14:39.888Z,1.60
2022-10-13T19:17:10.649Z,1.80
2022-10-13T19:19:42.015Z,2.00
2022-10-13T19:22:10.386Z,1.67
2022-10-13T19:24:37.919Z,1.87
2022-10-13T19:27:25.421Z,1.80
2022-10-13T19:29:53.752Z,1.80
2022-10-13T19:32:23.332Z,1.60
2022-10-13T19:34:50.997Z,1.90
2022-10-13T19:37:18.813Z,1.40
2022-10-13T19:39:47.950Z,1.27
2022-10-13T19:42:16.628Z,1.33
2022-10-13T19:44:46.795Z,1.40
2022-10-13T19:47:15.833Z,1.43
2022-10-13T19:49:43.627Z,1.30
2022-10-13T19:52:11.218Z,1.53
2022-10-13T19:54:40.685Z,1.47
2022-10-13T19:57:08.838Z,1.30
2022-10-13T19:59:38.039Z,1.30
2022-10-13T20:02:05.754Z,1.17
2022-10-13T20:04:35.196Z,1.20
2022-10-13T20:07:05.243Z,1.37
2022-10-13T20:09:33.646Z,1.43
2022-10-13T20:12:01.237Z,1.17
2022-10-13T20:14:30.339Z,1.23
2022-10-13T20:16:58.865Z,1.33
2022-10-13T20:19:27.990Z,1.40
2022-10-13T20:21:59.937Z,1.50
2022-10-13T20:24:27.731Z,1.50
2022-10-13T20:26:58.181Z,1.63
2022-10-13T20:29:26.640Z,1.20
2022-10-13T20:31:54.236Z,1.27
2022-10-13T20:34:25.535Z,1.30
2022-10-13T20:36:57.460Z,1.47
2022-10-13T20:39:28.116Z,1.10
2022-10-13T20:41:56.772Z,1.23
2022-10-13T20:44:24.927Z,1.17
2022-10-13T20:46:52.456Z,1.33
2022-10-13T20:49:42.780Z,1.40
2022-10-13T20:52:13.373Z,1.30
2022-10-13T20:54:40.885Z,1.40
2022-10-13T20:57:08.451Z,1.40
2022-10-13T20:59:36.034Z,1.43
2022-10-13T21:02:03.681Z,1.10
2022-10-13T21:04:31.226Z,1.80
2022-10-13T21:06:58.846Z,1.07
2022-10-13T21:09:26.919Z,1.27
2022-10-13T21:11:55.060Z,1.30
2022-10-13T21:14:27.666Z,1.00
2022-10-13T21:16:55.327Z,1.00
2022-10-13T21:19:23.387Z,0.80
2022-10-13T21:21:50.968Z,1.00
2022-10-13T21:24:18.615Z,1.50
2022-10-13T21:26:47.506Z,1.20
2022-10-13T21:29:15.338Z,1.10
2022-10-13T21:31:42.870Z,1.00
2022-10-13T21:34:12.127Z,1.20
2022-10-13T21:36:44.134Z,1.23
2022-10-13T21:39:13.781Z,0.80
2022-10-13T21:41:43.025Z,1.10
2022-10-13T21:44:14.903Z,1.13
2022-10-13T21:46:42.568Z,1.00
2022-10-13T21:49:10.652Z,1.00
2022-10-13T21:51:44.280Z,0.80
2022-10-13T21:54:16.385Z,0.70
2022-10-13T21:56:44.155Z,1.00
2022-10-13T21:59:13.661Z,0.80
2022-10-13T22:01:42.394Z,0.73
2022-10-13T22:04:14.545Z,0.80
2022-10-13T22:06:42.217Z,0.80
2022-10-13T22:09:10.014Z,0.67
2022-10-13T22:11:39.964Z,0.60
2022-10-13T22:14:13.787Z,0.70
2022-10-13T22:16:48.065Z,1.30
2022-10-13T22:19:18.043Z,0.80
2022-10-13T22:21:49.809Z,0.73
2022-10-13T22:24:22.341Z,1.00
2022-10-13T22:26:51.208Z,0.60
2022-10-13T22:29:25.166Z,0.77
2022-10-13T22:31:57.613Z,0.70
2022-10-13T22:34:25.536Z,0.80
2022-10-13T22:36:54.739Z,0.77
2022-10-13T22:39:23.763Z,0.80
2022-10-13T22:41:53.924Z,0.70
2022-10-13T22:44:21.507Z,0.70
2022-10-13T22:46:49.207Z,0.80
2022-10-13T22:49:17.020Z,0.90
2022-10-13T22:51:44.620Z,0.97
2022-10-13T22:54:12.525Z,0.80
2022-10-13T22:56:42.018Z,0.70
2022-10-13T22:59:11.347Z,0.70
2022-10-13T23:01:42.502Z,0.90
2022-10-13T23:04:10.491Z,0.80
2022-10-13T23:06:38.132Z,0.70
2022-10-13T23:09:10.924Z,0.53
2022-10-13T23:11:41.791Z,0.73
2022-10-13T23:14:12.833Z,0.70
2022-10-13T23:16:40.426Z,0.70
2022-10-13T23:19:08.018Z,0.60
2022-10-13T23:21:35.693Z,0.77
2022-10-13T23:24:06.391Z,0.80
2022-10-13T23:26:35.613Z,0.73
2022-10-13T23:29:03.242Z,0.70
2022-10-13T23:31:31.384Z,1.07
2022-10-13T23:33:59.309Z,0.60
2022-10-13T23:36:31.031Z,0.60
2022-10-13T23:39:07.385Z,0.70
2022-10-13T23:41:35.391Z,0.57
2022-10-13T23:44:03.221Z,0.77
2022-10-13T23:46:31.081Z,0.50
2022-10-13T23:48:58.633Z,0.70
2022-10-13T23:51:27.347Z,0.70
2022-10-13T23:53:55.437Z,0.60
2022-10-13T23:56:23.754Z,0.60
2022-10-13T23:58:51.457Z,0.67
